sensor_id;sensor_type;location;lat;lon;timestamp;P1;durP1;ratioP1;P2;durP2;ratioP2
38379;SDS011;38377;47.418;18.882;2024-03-07T00:02:12;23.65;;;13.35;;
38379;SDS011;38377;47.418;18.882;2024-03-07T00:04:38;24.73;;;11.98;;
38379;SDS011;38377;47.418;18.882;2024-03-07T00:07:04;21.00;;;11.88;;
38379;SDS011;38377;47.418;18.882;2024-03-07T00:09:33;23.35;;;11.68;;
38379;SDS011;38377;47.418;18.882;2024-03-07T00:11:59;21.05;;;10.38;;
38379;SDS011;38377;47.418;18.882;2024-03-07T00:14:29;21.10;;;10.90;;
38379;SDS011;38377;47.418;18.882;2024-03-07T00:16:55;21.17;;;11.05;;
38379;SDS011;38377;47.418;18.882;2024-03-07T00:19:21;17.75;;;9.73;;
38379;SDS011;38377;47.418;18.882;2024-03-07T00:21:50;19.52;;;11.27;;
38379;SDS011;38377;47.418;18.882;2024-03-07T00:24:16;21.30;;;11.15;;
38379;SDS011;38377;47.418;18.882;2024-03-07T00:26:42;21.15;;;10.57;;
38379;SDS011;38377;47.418;18.882;2024-03-07T00:29:07;19.33;;;11.75;;
38379;SDS011;38377;47.418;18.882;2024-03-07T00:31:33;16.30;;;9.75;;
38379;SDS011;38377;47.418;18.882;2024-03-07T00:33:59;18.50;;;9.70;;
38379;SDS011;38377;47.418;18.882;2024-03-07T00:36:24;19.65;;;10.30;;
38379;SDS011;38377;47.418;18.882;2024-03-07T00:38:50;18.77;;;10.18;;
38379;SDS011;38377;47.418;18.882;2024-03-07T00:41:19;17.55;;;10.07;;
38379;SDS011;38377;47.418;18.882;2024-03-07T00:43:45;14.30;;;8.48;;
38379;SDS011;38377;47.418;18.882;2024-03-07T00:46:11;14.75;;;8.20;;
38379;SDS011;38377;47.418;18.882;2024-03-07T00:48:37;13.15;;;7.45;;
38379;SDS011;38377;47.418;18.882;2024-03-07T00:51:03;14.85;;;7.78;;
38379;SDS011;38377;47.418;18.882;2024-03-07T00:53:29;13.55;;;7.50;;
38379;SDS011;38377;47.418;18.882;2024-03-07T00:55:57;13.88;;;8.25;;
38379;SDS011;38377;47.418;18.882;2024-03-07T00:58:23;14.43;;;8.32;;
38379;SDS011;38377;47.418;18.882;2024-03-07T01:00:48;14.23;;;8.38;;
38379;SDS011;38377;47.418;18.882;2024-03-07T01:03:14;12.73;;;8.18;;
38379;SDS011;38377;47.418;18.882;2024-03-07T01:05:42;16.25;;;8.75;;
38379;SDS011;38377;47.418;18.882;2024-03-07T01:08:08;14.88;;;8.70;;
38379;SDS011;38377;47.418;18.882;2024-03-07T01:10:34;15.35;;;8.20;;
38379;SDS011;38377;47.418;18.882;2024-03-07T01:13:00;15.60;;;8.88;;
38379;SDS011;38377;47.418;18.882;2024-03-07T01:15:27;13.68;;;7.60;;
38379;SDS011;38377;47.418;18.882;2024-03-07T01:17:53;17.77;;;8.52;;
38379;SDS011;38377;47.418;18.882;2024-03-07T01:20:19;13.88;;;7.75;;
38379;SDS011;38377;47.418;18.882;2024-03-07T01:22:44;15.25;;;8.70;;
38379;SDS011;38377;47.418;18.882;2024-03-07T01:25:10;12.95;;;7.20;;
38379;SDS011;38377;47.418;18.882;2024-03-07T01:27:37;16.17;;;8.07;;
38379;SDS011;38377;47.418;18.882;2024-03-07T01:30:03;12.40;;;7.68;;
38379;SDS011;38377;47.418;18.882;2024-03-07T01:32:32;12.98;;;7.78;;
38379;SDS011;38377;47.418;18.882;2024-03-07T01:34:58;11.65;;;7.82;;
38379;SDS011;38377;47.418;18.882;2024-03-07T01:37:24;13.38;;;7.63;;
38379;SDS011;38377;47.418;18.882;2024-03-07T01:39:49;15.55;;;8.00;;
38379;SDS011;38377;47.418;18.882;2024-03-07T01:42:15;13.43;;;8.15;;
38379;SDS011;38377;47.418;18.882;2024-03-07T01:44:40;10.85;;;7.07;;
38379;SDS011;38377;47.418;18.882;2024-03-07T01:47:06;13.90;;;8.18;;
38379;SDS011;38377;47.418;18.882;2024-03-07T01:49:32;12.98;;;7.13;;
38379;SDS011;38377;47.418;18.882;2024-03-07T01:51:58;10.77;;;6.65;;
38379;SDS011;38377;47.418;18.882;2024-03-07T01:54:25;13.10;;;7.45;;
38379;SDS011;38377;47.418;18.882;2024-03-07T01:56:51;13.18;;;7.75;;
38379;SDS011;38377;47.418;18.882;2024-03-07T01:59:18;14.85;;;8.10;;
38379;SDS011;38377;47.418;18.882;2024-03-07T02:01:45;14.30;;;7.63;;
38379;SDS011;38377;47.418;18.882;2024-03-07T02:04:12;14.20;;;7.78;;
38379;SDS011;38377;47.418;18.882;2024-03-07T02:06:37;14.60;;;7.63;;
38379;SDS011;38377;47.418;18.882;2024-03-07T02:09:03;14.20;;;8.32;;
38379;SDS011;38377;47.418;18.882;2024-03-07T02:11:30;15.23;;;9.13;;
38379;SDS011;38377;47.418;18.882;2024-03-07T02:13:56;13.00;;;8.25;;
38379;SDS011;38377;47.418;18.882;2024-03-07T02:16:22;14.68;;;8.15;;
38379;SDS011;38377;47.418;18.882;2024-03-07T02:18:48;12.85;;;8.07;;
38379;SDS011;38377;47.418;18.882;2024-03-07T02:21:15;14.75;;;8.15;;
38379;SDS011;38377;47.418;18.882;2024-03-07T02:23:40;12.73;;;7.80;;
38379;SDS011;38377;47.418;18.882;2024-03-07T02:26:06;13.75;;;7.78;;
38379;SDS011;38377;47.418;18.882;2024-03-07T02:28:33;12.98;;;7.25;;
38379;SDS011;38377;47.418;18.882;2024-03-07T02:30:59;12.90;;;8.35;;
38379;SDS011;38377;47.418;18.882;2024-03-07T02:33:25;15.88;;;7.82;;
38379;SDS011;38377;47.418;18.882;2024-03-07T02:35:51;13.23;;;8.02;;
38379;SDS011;38377;47.418;18.882;2024-03-07T02:38:16;12.38;;;7.22;;
38379;SDS011;38377;47.418;18.882;2024-03-07T02:40:42;12.98;;;7.32;;
38379;SDS011;38377;47.418;18.882;2024-03-07T02:43:08;15.73;;;7.13;;
38379;SDS011;38377;47.418;18.882;2024-03-07T02:45:34;13.13;;;7.68;;
38379;SDS011;38377;47.418;18.882;2024-03-07T02:47:59;14.70;;;8.25;;
38379;SDS011;38377;47.418;18.882;2024-03-07T02:50:25;13.13;;;7.25;;
38379;SDS011;38377;47.418;18.882;2024-03-07T02:52:51;14.15;;;8.18;;
38379;SDS011;38377;47.418;18.882;2024-03-07T02:55:17;15.52;;;8.43;;
38379;SDS011;38377;47.418;18.882;2024-03-07T02:57:44;12.57;;;8.27;;
38379;SDS011;38377;47.418;18.882;2024-03-07T03:00:10;15.13;;;8.77;;
38379;SDS011;38377;47.418;18.882;2024-03-07T03:02:45;13.23;;;7.10;;
38379;SDS011;38377;47.418;18.882;2024-03-07T03:05:12;12.30;;;7.47;;
38379;SDS011;38377;47.418;18.882;2024-03-07T03:07:39;12.45;;;7.95;;
38379;SDS011;38377;47.418;18.882;2024-03-07T03:10:05;14.10;;;6.95;;
38379;SDS011;38377;47.418;18.882;2024-03-07T03:12:34;13.77;;;8.15;;
38379;SDS011;38377;47.418;18.882;2024-03-07T03:15:04;12.38;;;6.88;;
38379;SDS011;38377;47.418;18.882;2024-03-07T03:17:32;11.05;;;6.55;;
38379;SDS011;38377;47.418;18.882;2024-03-07T03:19:57;9.75;;;5.57;;
38379;SDS011;38377;47.418;18.882;2024-03-07T03:22:23;12.40;;;6.82;;
38379;SDS011;38377;47.418;18.882;2024-03-07T03:24:48;10.98;;;6.93;;
38379;SDS011;38377;47.418;18.882;2024-03-07T03:27:14;10.70;;;6.25;;
38379;SDS011;38377;47.418;18.882;2024-03-07T03:29:39;12.20;;;6.93;;
38379;SDS011;38377;47.418;18.882;2024-03-07T03:32:05;10.48;;;5.63;;
38379;SDS011;38377;47.418;18.882;2024-03-07T03:34:32;11.52;;;6.38;;
38379;SDS011;38377;47.418;18.882;2024-03-07T03:36:58;11.32;;;6.63;;
38379;SDS011;38377;47.418;18.882;2024-03-07T03:39:24;10.70;;;6.50;;
38379;SDS011;38377;47.418;18.882;2024-03-07T03:41:51;11.70;;;7.20;;
38379;SDS011;38377;47.418;18.882;2024-03-07T03:44:17;12.73;;;6.85;;
38379;SDS011;38377;47.418;18.882;2024-03-07T03:46:43;10.90;;;6.53;;
38379;SDS011;38377;47.418;18.882;2024-03-07T03:49:09;14.82;;;6.70;;
38379;SDS011;38377;47.418;18.882;2024-03-07T03:51:35;12.00;;;7.10;;
38379;SDS011;38377;47.418;18.882;2024-03-07T03:54:01;10.20;;;6.05;;
38379;SDS011;38377;47.418;18.882;2024-03-07T03:56:27;9.23;;;5.65;;
38379;SDS011;38377;47.418;18.882;2024-03-07T03:58:53;11.13;;;6.97;;
38379;SDS011;38377;47.418;18.882;2024-03-07T04:01:19;7.68;;;5.65;;
38379;SDS011;38377;47.418;18.882;2024-03-07T04:03:44;8.45;;;5.15;;
38379;SDS011;38377;47.418;18.882;2024-03-07T04:06:11;13.18;;;6.75;;
38379;SDS011;38377;47.418;18.882;2024-03-07T04:08:37;9.37;;;6.07;;
38379;SDS011;38377;47.418;18.882;2024-03-07T04:11:03;10.35;;;6.05;;
38379;SDS011;38377;47.418;18.882;2024-03-07T04:13:29;9.97;;;6.33;;
38379;SDS011;38377;47.418;18.882;2024-03-07T04:15:56;9.50;;;6.10;;
38379;SDS011;38377;47.418;18.882;2024-03-07T04:18:22;10.60;;;5.63;;
38379;SDS011;38377;47.418;18.882;2024-03-07T04:20:48;10.45;;;5.93;;
38379;SDS011;38377;47.418;18.882;2024-03-07T04:23:14;10.32;;;6.18;;
38379;SDS011;38377;47.418;18.882;2024-03-07T04:25:40;10.97;;;6.30;;
38379;SDS011;38377;47.418;18.882;2024-03-07T04:28:06;9.85;;;5.78;;
38379;SDS011;38377;47.418;18.882;2024-03-07T04:30:31;11.15;;;6.20;;
38379;SDS011;38377;47.418;18.882;2024-03-07T04:32:57;8.95;;;5.82;;
38379;SDS011;38377;47.418;18.882;2024-03-07T04:35:23;9.10;;;5.60;;
38379;SDS011;38377;47.418;18.882;2024-03-07T04:37:49;9.60;;;5.78;;
38379;SDS011;38377;47.418;18.882;2024-03-07T04:40:15;10.75;;;5.88;;
38379;SDS011;38377;47.418;18.882;2024-03-07T04:42:45;11.90;;;6.72;;
38379;SDS011;38377;47.418;18.882;2024-03-07T04:45:11;10.93;;;6.53;;
38379;SDS011;38377;47.418;18.882;2024-03-07T04:47:41;9.63;;;5.93;;
38379;SDS011;38377;47.418;18.882;2024-03-07T04:50:07;10.75;;;6.05;;
38379;SDS011;38377;47.418;18.882;2024-03-07T04:52:35;11.00;;;6.25;;
38379;SDS011;38377;47.418;18.882;2024-03-07T04:55:02;11.73;;;6.38;;
38379;SDS011;38377;47.418;18.882;2024-03-07T04:57:27;10.45;;;6.05;;
38379;SDS011;38377;47.418;18.882;2024-03-07T04:59:53;9.60;;;6.40;;
38379;SDS011;38377;47.418;18.882;2024-03-07T05:02:18;11.20;;;6.43;;
38379;SDS011;38377;47.418;18.882;2024-03-07T05:04:44;11.10;;;6.97;;
38379;SDS011;38377;47.418;18.882;2024-03-07T05:07:10;10.85;;;6.60;;
38379;SDS011;38377;47.418;18.882;2024-03-07T05:09:35;10.13;;;6.47;;
38379;SDS011;38377;47.418;18.882;2024-03-07T05:12:01;10.60;;;6.00;;
38379;SDS011;38377;47.418;18.882;2024-03-07T05:14:26;12.40;;;6.70;;
38379;SDS011;38377;47.418;18.882;2024-03-07T05:16:52;11.00;;;6.70;;
38379;SDS011;38377;47.418;18.882;2024-03-07T05:19:30;12.80;;;8.40;;
38379;SDS011;38377;47.418;18.882;2024-03-07T05:21:56;13.30;;;6.77;;
38379;SDS011;38377;47.418;18.882;2024-03-07T05:24:22;13.50;;;7.13;;
38379;SDS011;38377;47.418;18.882;2024-03-07T05:26:48;13.18;;;7.20;;
38379;SDS011;38377;47.418;18.882;2024-03-07T05:29:14;12.27;;;7.53;;
38379;SDS011;38377;47.418;18.882;2024-03-07T05:31:40;13.53;;;7.97;;
38379;SDS011;38377;47.418;18.882;2024-03-07T05:34:12;11.63;;;7.05;;
38379;SDS011;38377;47.418;18.882;2024-03-07T05:36:38;14.75;;;7.70;;
38379;SDS011;38377;47.418;18.882;2024-03-07T05:39:11;14.20;;;8.60;;
38379;SDS011;38377;47.418;18.882;2024-03-07T05:41:38;12.80;;;7.85;;
38379;SDS011;38377;47.418;18.882;2024-03-07T05:44:04;12.13;;;7.13;;
38379;SDS011;38377;47.418;18.882;2024-03-07T05:46:34;14.35;;;7.82;;
38379;SDS011;38377;47.418;18.882;2024-03-07T05:49:01;12.02;;;7.82;;
38379;SDS011;38377;47.418;18.882;2024-03-07T05:51:28;12.32;;;7.13;;
38379;SDS011;38377;47.418;18.882;2024-03-07T05:53:53;12.55;;;7.22;;
38379;SDS011;38377;47.418;18.882;2024-03-07T05:56:19;12.40;;;7.72;;
38379;SDS011;38377;47.418;18.882;2024-03-07T05:58:44;12.57;;;6.82;;
38379;SDS011;38377;47.418;18.882;2024-03-07T06:01:10;13.27;;;8.02;;
38379;SDS011;38377;47.418;18.882;2024-03-07T06:03:36;13.82;;;7.15;;
38379;SDS011;38377;47.418;18.882;2024-03-07T06:06:02;13.23;;;7.22;;
38379;SDS011;38377;47.418;18.882;2024-03-07T06:08:30;13.57;;;7.93;;
38379;SDS011;38377;47.418;18.882;2024-03-07T06:10:56;13.95;;;8.45;;
38379;SDS011;38377;47.418;18.882;2024-03-07T06:13:23;13.93;;;8.38;;
38379;SDS011;38377;47.418;18.882;2024-03-07T06:15:48;15.45;;;7.85;;
38379;SDS011;38377;47.418;18.882;2024-03-07T06:18:14;13.52;;;7.80;;
38379;SDS011;38377;47.418;18.882;2024-03-07T06:20:40;13.00;;;7.68;;
38379;SDS011;38377;47.418;18.882;2024-03-07T06:23:06;14.60;;;8.85;;
38379;SDS011;38377;47.418;18.882;2024-03-07T06:25:32;17.45;;;8.90;;
38379;SDS011;38377;47.418;18.882;2024-03-07T06:28:18;15.60;;;8.05;;
38379;SDS011;38377;47.418;18.882;2024-03-07T06:30:44;15.50;;;8.57;;
38379;SDS011;38377;47.418;18.882;2024-03-07T06:33:10;15.68;;;8.85;;
38379;SDS011;38377;47.418;18.882;2024-03-07T06:35:36;18.08;;;8.43;;
38379;SDS011;38377;47.418;18.882;2024-03-07T06:38:06;15.63;;;7.80;;
38379;SDS011;38377;47.418;18.882;2024-03-07T06:40:34;17.13;;;8.77;;
38379;SDS011;38377;47.418;18.882;2024-03-07T06:43:05;14.60;;;7.80;;
38379;SDS011;38377;47.418;18.882;2024-03-07T06:45:36;16.38;;;9.85;;
38379;SDS011;38377;47.418;18.882;2024-03-07T06:48:05;15.05;;;8.52;;
38379;SDS011;38377;47.418;18.882;2024-03-07T06:50:35;16.10;;;8.27;;
38379;SDS011;38377;47.418;18.882;2024-03-07T06:53:01;15.15;;;8.90;;
38379;SDS011;38377;47.418;18.882;2024-03-07T06:55:28;12.15;;;7.50;;
38379;SDS011;38377;47.418;18.882;2024-03-07T06:57:54;14.85;;;7.35;;
38379;SDS011;38377;47.418;18.882;2024-03-07T07:00:19;11.40;;;6.53;;
38379;SDS011;38377;47.418;18.882;2024-03-07T07:02:46;11.13;;;7.10;;
38379;SDS011;38377;47.418;18.882;2024-03-07T07:05:15;12.05;;;6.35;;
38379;SDS011;38377;47.418;18.882;2024-03-07T07:07:43;9.32;;;5.65;;
38379;SDS011;38377;47.418;18.882;2024-03-07T07:10:10;9.90;;;5.93;;
38379;SDS011;38377;47.418;18.882;2024-03-07T07:12:43;8.50;;;6.18;;
38379;SDS011;38377;47.418;18.882;2024-03-07T07:15:13;6.40;;;4.28;;
38379;SDS011;38377;47.418;18.882;2024-03-07T07:17:41;8.35;;;5.00;;
38379;SDS011;38377;47.418;18.882;2024-03-07T07:20:10;12.70;;;6.03;;
38379;SDS011;38377;47.418;18.882;2024-03-07T07:22:39;7.00;;;4.50;;
38379;SDS011;38377;47.418;18.882;2024-03-07T07:25:05;7.85;;;4.93;;
38379;SDS011;38377;47.418;18.882;2024-03-07T07:27:37;9.73;;;5.65;;
38379;SDS011;38377;47.418;18.882;2024-03-07T07:30:14;8.65;;;5.30;;
38379;SDS011;38377;47.418;18.882;2024-03-07T07:32:41;7.55;;;5.15;;
38379;SDS011;38377;47.418;18.882;2024-03-07T07:35:08;8.13;;;5.05;;
38379;SDS011;38377;47.418;18.882;2024-03-07T07:37:36;7.68;;;4.72;;
38379;SDS011;38377;47.418;18.882;2024-03-07T07:40:10;4.70;;;3.58;;
38379;SDS011;38377;47.418;18.882;2024-03-07T07:42:43;4.95;;;3.30;;
38379;SDS011;38377;47.418;18.882;2024-03-07T07:45:11;4.88;;;3.47;;
38379;SDS011;38377;47.418;18.882;2024-03-07T07:47:41;4.95;;;3.00;;
38379;SDS011;38377;47.418;18.882;2024-03-07T07:50:09;3.22;;;2.00;;
38379;SDS011;38377;47.418;18.882;2024-03-07T07:55:20;4.20;;;2.85;;
38379;SDS011;38377;47.418;18.882;2024-03-07T07:57:47;4.65;;;2.70;;
38379;SDS011;38377;47.418;18.882;2024-03-07T08:00:16;5.82;;;3.67;;
38379;SDS011;38377;47.418;18.882;2024-03-07T08:05:19;6.18;;;3.63;;
38379;SDS011;38377;47.418;18.882;2024-03-07T08:07:58;4.38;;;3.08;;
38379;SDS011;38377;47.418;18.882;2024-03-07T08:10:29;4.10;;;2.58;;
38379;SDS011;38377;47.418;18.882;2024-03-07T08:12:59;9.43;;;4.43;;
38379;SDS011;38377;47.418;18.882;2024-03-07T08:15:26;7.68;;;4.32;;
38379;SDS011;38377;47.418;18.882;2024-03-07T08:17:53;4.05;;;2.72;;
38379;SDS011;38377;47.418;18.882;2024-03-07T08:20:20;4.30;;;3.15;;
38379;SDS011;38377;47.418;18.882;2024-03-07T08:22:47;5.30;;;3.47;;
38379;SDS011;38377;47.418;18.882;2024-03-07T08:25:17;5.40;;;4.00;;
38379;SDS011;38377;47.418;18.882;2024-03-07T08:27:48;6.35;;;3.13;;
38379;SDS011;38377;47.418;18.882;2024-03-07T08:30:15;5.80;;;3.70;;
38379;SDS011;38377;47.418;18.882;2024-03-07T08:32:44;4.18;;;3.20;;
38379;SDS011;38377;47.418;18.882;2024-03-07T08:35:11;4.53;;;3.20;;
38379;SDS011;38377;47.418;18.882;2024-03-07T08:37:41;11.25;;;5.07;;
38379;SDS011;38377;47.418;18.882;2024-03-07T08:40:09;8.20;;;4.32;;
38379;SDS011;38377;47.418;18.882;2024-03-07T08:42:40;8.57;;;4.93;;
38379;SDS011;38377;47.418;18.882;2024-03-07T08:45:08;4.85;;;3.08;;
38379;SDS011;38377;47.418;18.882;2024-03-07T08:47:35;6.88;;;3.10;;
38379;SDS011;38377;47.418;18.882;2024-03-07T08:50:03;5.80;;;3.50;;
38379;SDS011;38377;47.418;18.882;2024-03-07T08:52:33;6.18;;;3.70;;
38379;SDS011;38377;47.418;18.882;2024-03-07T08:55:02;18.23;;;9.80;;
38379;SDS011;38377;47.418;18.882;2024-03-07T08:57:28;10.98;;;5.93;;
38379;SDS011;38377;47.418;18.882;2024-03-07T08:59:54;7.97;;;5.38;;
38379;SDS011;38377;47.418;18.882;2024-03-07T09:02:19;5.10;;;3.88;;
38379;SDS011;38377;47.418;18.882;2024-03-07T09:04:45;4.80;;;3.35;;
38379;SDS011;38377;47.418;18.882;2024-03-07T09:07:11;4.68;;;3.70;;
38379;SDS011;38377;47.418;18.882;2024-03-07T09:09:36;8.02;;;7.22;;
38379;SDS011;38377;47.418;18.882;2024-03-07T09:12:02;7.60;;;4.22;;
38379;SDS011;38377;47.418;18.882;2024-03-07T09:14:28;5.50;;;4.05;;
38379;SDS011;38377;47.418;18.882;2024-03-07T09:16:54;7.65;;;5.28;;
38379;SDS011;38377;47.418;18.882;2024-03-07T09:19:19;5.80;;;4.15;;
38379;SDS011;38377;47.418;18.882;2024-03-07T09:21:48;6.20;;;3.92;;
38379;SDS011;38377;47.418;18.882;2024-03-07T09:24:17;6.93;;;5.07;;
38379;SDS011;38377;47.418;18.882;2024-03-07T09:26:47;5.15;;;4.20;;
38379;SDS011;38377;47.418;18.882;2024-03-07T09:29:16;8.18;;;4.93;;
38379;SDS011;38377;47.418;18.882;2024-03-07T09:31:43;8.05;;;6.30;;
38379;SDS011;38377;47.418;18.882;2024-03-07T09:34:10;6.18;;;4.47;;
38379;SDS011;38377;47.418;18.882;2024-03-07T09:36:37;5.35;;;4.38;;
38379;SDS011;38377;47.418;18.882;2024-03-07T09:39:03;8.02;;;6.38;;
38379;SDS011;38377;47.418;18.882;2024-03-07T09:41:30;11.45;;;6.13;;
38379;SDS011;38377;47.418;18.882;2024-03-07T09:43:57;9.20;;;6.57;;
38379;SDS011;38377;47.418;18.882;2024-03-07T09:46:24;5.10;;;3.80;;
38379;SDS011;38377;47.418;18.882;2024-03-07T09:48:51;7.85;;;4.70;;
38379;SDS011;38377;47.418;18.882;2024-03-07T09:51:19;5.35;;;3.70;;
38379;SDS011;38377;47.418;18.882;2024-03-07T09:53:49;7.68;;;4.47;;
38379;SDS011;38377;47.418;18.882;2024-03-07T09:56:20;8.38;;;5.68;;
38379;SDS011;38377;47.418;18.882;2024-03-07T09:58:50;5.20;;;3.47;;
38379;SDS011;38377;47.418;18.882;2024-03-07T10:01:18;13.48;;;5.22;;
38379;SDS011;38377;47.418;18.882;2024-03-07T10:03:46;12.90;;;6.57;;
38379;SDS011;38377;47.418;18.882;2024-03-07T10:06:12;8.13;;;4.35;;
38379;SDS011;38377;47.418;18.882;2024-03-07T10:08:39;10.45;;;5.78;;
38379;SDS011;38377;47.418;18.882;2024-03-07T10:11:07;15.55;;;8.32;;
38379;SDS011;38377;47.418;18.882;2024-03-07T10:13:35;12.60;;;7.97;;
38379;SDS011;38377;47.418;18.882;2024-03-07T10:16:01;22.05;;;11.68;;
38379;SDS011;38377;47.418;18.882;2024-03-07T10:18:29;8.77;;;5.68;;
38379;SDS011;38377;47.418;18.882;2024-03-07T10:20:56;5.63;;;3.78;;
38379;SDS011;38377;47.418;18.882;2024-03-07T10:23:22;15.38;;;9.88;;
38379;SDS011;38377;47.418;18.882;2024-03-07T10:25:49;8.73;;;6.07;;
38379;SDS011;38377;47.418;18.882;2024-03-07T10:28:18;9.48;;;5.32;;
38379;SDS011;38377;47.418;18.882;2024-03-07T10:30:47;12.50;;;7.47;;
38379;SDS011;38377;47.418;18.882;2024-03-07T10:33:15;11.85;;;7.07;;
38379;SDS011;38377;47.418;18.882;2024-03-07T10:35:42;10.45;;;6.07;;
38379;SDS011;38377;47.418;18.882;2024-03-07T10:38:07;10.75;;;6.57;;
38379;SDS011;38377;47.418;18.882;2024-03-07T10:40:36;10.27;;;6.97;;
38379;SDS011;38377;47.418;18.882;2024-03-07T10:43:09;5.68;;;4.13;;
38379;SDS011;38377;47.418;18.882;2024-03-07T10:45:45;11.13;;;5.70;;
38379;SDS011;38377;47.418;18.882;2024-03-07T10:48:12;17.42;;;9.95;;
38379;SDS011;38377;47.418;18.882;2024-03-07T10:53:32;31.58;;;20.00;;
38379;SDS011;38377;47.418;18.882;2024-03-07T10:56:15;7.13;;;4.57;;
38379;SDS011;38377;47.418;18.882;2024-03-07T10:59:23;9.48;;;6.30;;
38379;SDS011;38377;47.418;18.882;2024-03-07T11:02:04;12.18;;;5.60;;
38379;SDS011;38377;47.418;18.882;2024-03-07T11:04:44;9.27;;;5.68;;
38379;SDS011;38377;47.418;18.882;2024-03-07T11:07:12;9.15;;;7.95;;
38379;SDS011;38377;47.418;18.882;2024-03-07T11:09:38;7.72;;;5.68;;
38379;SDS011;38377;47.418;18.882;2024-03-07T11:12:07;8.80;;;5.70;;
38379;SDS011;38377;47.418;18.882;2024-03-07T11:14:35;8.82;;;6.40;;
38379;SDS011;38377;47.418;18.882;2024-03-07T11:17:02;7.13;;;4.93;;
38379;SDS011;38377;47.418;18.882;2024-03-07T11:19:30;7.20;;;4.70;;
38379;SDS011;38377;47.418;18.882;2024-03-07T11:22:01;7.28;;;6.05;;
38379;SDS011;38377;47.418;18.882;2024-03-07T11:24:28;9.10;;;5.20;;
38379;SDS011;38377;47.418;18.882;2024-03-07T11:26:56;14.82;;;8.52;;
38379;SDS011;38377;47.418;18.882;2024-03-07T11:29:41;8.10;;;4.45;;
38379;SDS011;38377;47.418;18.882;2024-03-07T11:32:11;11.38;;;5.78;;
38379;SDS011;38377;47.418;18.882;2024-03-07T11:34:41;35.15;;;15.80;;
38379;SDS011;38377;47.418;18.882;2024-03-07T11:37:08;53.53;;;21.55;;
38379;SDS011;38377;47.418;18.882;2024-03-07T11:39:51;22.00;;;11.32;;
38379;SDS011;38377;47.418;18.882;2024-03-07T11:42:24;17.33;;;6.68;;
38379;SDS011;38377;47.418;18.882;2024-03-07T11:44:53;7.22;;;4.93;;
38379;SDS011;38377;47.418;18.882;2024-03-07T11:47:26;8.10;;;5.32;;
38379;SDS011;38377;47.418;18.882;2024-03-07T11:50:00;6.25;;;4.55;;
38379;SDS011;38377;47.418;18.882;2024-03-07T11:52:27;12.70;;;5.32;;
38379;SDS011;38377;47.418;18.882;2024-03-07T11:54:53;6.88;;;4.15;;
38379;SDS011;38377;47.418;18.882;2024-03-07T11:57:22;11.27;;;5.88;;
38379;SDS011;38377;47.418;18.882;2024-03-07T11:59:57;8.32;;;5.20;;
38379;SDS011;38377;47.418;18.882;2024-03-07T12:02:26;7.25;;;5.13;;
38379;SDS011;38377;47.418;18.882;2024-03-07T12:04:52;6.85;;;4.53;;
38379;SDS011;38377;47.418;18.882;2024-03-07T12:07:18;8.52;;;4.93;;
38379;SDS011;38377;47.418;18.882;2024-03-07T12:09:47;9.57;;;5.88;;
38379;SDS011;38377;47.418;18.882;2024-03-07T12:12:19;5.75;;;4.28;;
38379;SDS011;38377;47.418;18.882;2024-03-07T12:17:19;15.70;;;8.00;;
38379;SDS011;38377;47.418;18.882;2024-03-07T12:19:45;21.25;;;8.50;;
38379;SDS011;38377;47.418;18.882;2024-03-07T12:22:12;7.57;;;4.78;;
38379;SDS011;38377;47.418;18.882;2024-03-07T12:24:41;14.48;;;6.85;;
38379;SDS011;38377;47.418;18.882;2024-03-07T12:27:10;20.13;;;8.55;;
38379;SDS011;38377;47.418;18.882;2024-03-07T12:29:40;10.53;;;6.03;;
38379;SDS011;38377;47.418;18.882;2024-03-07T12:32:13;23.25;;;9.43;;
38379;SDS011;38377;47.418;18.882;2024-03-07T12:34:39;7.90;;;5.55;;
38379;SDS011;38377;47.418;18.882;2024-03-07T12:37:10;18.35;;;9.00;;
38379;SDS011;38377;47.418;18.882;2024-03-07T12:39:41;9.60;;;6.43;;
38379;SDS011;38377;47.418;18.882;2024-03-07T12:42:13;13.25;;;7.13;;
38379;SDS011;38377;47.418;18.882;2024-03-07T12:44:42;14.25;;;7.03;;
38379;SDS011;38377;47.418;18.882;2024-03-07T12:47:10;9.57;;;5.10;;
38379;SDS011;38377;47.418;18.882;2024-03-07T12:49:40;15.07;;;8.48;;
38379;SDS011;38377;47.418;18.882;2024-03-07T12:52:07;15.77;;;8.68;;
38379;SDS011;38377;47.418;18.882;2024-03-07T12:54:33;13.23;;;9.23;;
38379;SDS011;38377;47.418;18.882;2024-03-07T12:57:06;10.07;;;6.47;;
38379;SDS011;38377;47.418;18.882;2024-03-07T12:59:35;9.05;;;5.68;;
38379;SDS011;38377;47.418;18.882;2024-03-07T13:02:05;9.32;;;5.50;;
38379;SDS011;38377;47.418;18.882;2024-03-07T13:04:34;10.40;;;5.53;;
38379;SDS011;38377;47.418;18.882;2024-03-07T13:07:02;11.20;;;6.00;;
38379;SDS011;38377;47.418;18.882;2024-03-07T13:09:29;11.07;;;7.03;;
38379;SDS011;38377;47.418;18.882;2024-03-07T13:11:56;10.30;;;5.68;;
38379;SDS011;38377;47.418;18.882;2024-03-07T13:14:34;12.90;;;7.60;;
38379;SDS011;38377;47.418;18.882;2024-03-07T13:17:01;13.73;;;7.28;;
38379;SDS011;38377;47.418;18.882;2024-03-07T13:19:27;16.42;;;8.43;;
38379;SDS011;38377;47.418;18.882;2024-03-07T13:21:54;9.23;;;6.00;;
38379;SDS011;38377;47.418;18.882;2024-03-07T13:24:20;16.02;;;7.60;;
38379;SDS011;38377;47.418;18.882;2024-03-07T13:26:46;11.45;;;6.50;;
38379;SDS011;38377;47.418;18.882;2024-03-07T13:29:15;19.75;;;8.02;;
38379;SDS011;38377;47.418;18.882;2024-03-07T13:31:42;17.65;;;9.75;;
38379;SDS011;38377;47.418;18.882;2024-03-07T13:34:09;24.73;;;11.05;;
38379;SDS011;38377;47.418;18.882;2024-03-07T13:36:38;12.80;;;7.35;;
38379;SDS011;38377;47.418;18.882;2024-03-07T13:39:11;8.90;;;5.80;;
38379;SDS011;38377;47.418;18.882;2024-03-07T13:44:07;7.18;;;4.65;;
38379;SDS011;38377;47.418;18.882;2024-03-07T13:46:33;10.63;;;6.93;;
38379;SDS011;38377;47.418;18.882;2024-03-07T13:49:03;8.07;;;4.68;;
38379;SDS011;38377;47.418;18.882;2024-03-07T13:51:40;8.80;;;4.93;;
38379;SDS011;38377;47.418;18.882;2024-03-07T13:54:17;7.68;;;4.80;;
38379;SDS011;38377;47.418;18.882;2024-03-07T14:05:24;14.93;;;8.23;;
38379;SDS011;38377;47.418;18.882;2024-03-07T14:19:48;8.95;;;5.70;;
38379;SDS011;38377;47.418;18.882;2024-03-07T14:28:26;11.00;;;5.43;;
38379;SDS011;38377;47.418;18.882;2024-03-07T14:31:13;7.30;;;4.97;;
38379;SDS011;38377;47.418;18.882;2024-03-07T14:36:34;6.63;;;4.68;;
38379;SDS011;38377;47.418;18.882;2024-03-07T14:39:10;8.05;;;4.82;;
38379;SDS011;38377;47.418;18.882;2024-03-07T14:41:49;9.32;;;5.43;;
38379;SDS011;38377;47.418;18.882;2024-03-07T14:44:17;6.47;;;4.80;;
38379;SDS011;38377;47.418;18.882;2024-03-07T14:46:45;8.48;;;5.03;;
38379;SDS011;38377;47.418;18.882;2024-03-07T14:49:15;7.63;;;5.07;;
38379;SDS011;38377;47.418;18.882;2024-03-07T14:51:42;9.70;;;5.55;;
38379;SDS011;38377;47.418;18.882;2024-03-07T14:54:09;16.63;;;6.03;;
38379;SDS011;38377;47.418;18.882;2024-03-07T14:56:35;8.20;;;4.65;;
38379;SDS011;38377;47.418;18.882;2024-03-07T14:59:01;9.60;;;6.10;;
38379;SDS011;38377;47.418;18.882;2024-03-07T15:01:31;7.50;;;5.47;;
38379;SDS011;38377;47.418;18.882;2024-03-07T15:03:59;11.13;;;6.22;;
38379;SDS011;38377;47.418;18.882;2024-03-07T15:06:28;9.75;;;5.93;;
38379;SDS011;38377;47.418;18.882;2024-03-07T15:08:56;10.50;;;7.10;;
38379;SDS011;38377;47.418;18.882;2024-03-07T15:11:23;8.13;;;4.93;;
38379;SDS011;38377;47.418;18.882;2024-03-07T15:13:54;15.68;;;8.25;;